sensor_id;sensor_type;location;lat;lon;timestamp;pressure;altitude;pressure_sealevel;temperature;humidity
84318;BME280;74497;51.654;14.238;2024-02-23T00:02:20;97724.84;;;10.01;100.00
84318;BME280;74497;51.654;14.238;2024-02-23T00:04:45;97714.34;;;10.06;100.00
84318;BME280;74497;51.654;14.238;2024-02-23T00:07:11;97705.31;;;10.07;100.00
84318;BME280;74497;51.654;14.238;2024-02-23T00:09:37;97706.94;;;10.08;100.00
84318;BME280;74497;51.654;14.238;2024-02-23T00:12:03;97700.78;;;10.08;100.00
84318;BME280;74497;51.654;14.238;2024-02-23T00:14:29;97707.53;;;10.10;100.00
84318;BME280;74497;51.654;14.238;2024-02-23T00:16:56;97706.13;;;10.08;100.00
84318;BME280;74497;51.654;14.238;2024-02-23T00:19:23;97722.94;;;10.08;100.00
84318;BME280;74497;51.654;14.238;2024-02-23T00:21:49;97709.59;;;10.08;100.00
84318;BME280;74497;51.654;14.238;2024-02-23T00:24:16;97715.13;;;10.13;100.00
84318;BME280;74497;51.654;14.238;2024-02-23T00:26:43;97714.34;;;10.06;100.00
84318;BME280;74497;51.654;14.238;2024-02-23T00:29:08;97721.69;;;10.11;100.00
84318;BME280;74497;51.654;14.238;2024-02-23T00:31:37;97718.03;;;10.05;100.00
84318;BME280;74497;51.654;14.238;2024-02-23T00:34:03;97719.25;;;10.09;100.00
84318;BME280;74497;51.654;14.238;2024-02-23T00:36:28;97719.63;;;10.13;100.00
84318;BME280;74497;51.654;14.238;2024-02-23T00:38:54;97723.91;;;10.20;100.00
84318;BME280;74497;51.654;14.238;2024-02-23T00:41:20;97727.34;;;10.27;100.00
84318;BME280;74497;51.654;14.238;2024-02-23T00:43:46;97722.63;;;10.29;100.00
84318;BME280;74497;51.654;14.238;2024-02-23T00:46:13;97716.69;;;10.27;100.00
84318;BME280;74497;51.654;14.238;2024-02-23T00:48:40;97703.56;;;10.26;100.00
84318;BME280;74497;51.654;14.238;2024-02-23T00:51:05;97706.47;;;10.24;100.00
84318;BME280;74497;51.654;14.238;2024-02-23T00:53:31;97712.63;;;10.25;100.00
84318;BME280;74497;51.654;14.238;2024-02-23T00:55:57;97703.31;;;10.34;100.00
84318;BME280;74497;51.654;14.238;2024-02-23T00:58:23;97709.28;;;10.29;100.00
84318;BME280;74497;51.654;14.238;2024-02-23T01:00:48;97687.69;;;10.38;100.00
84318;BME280;74497;51.654;14.238;2024-02-23T01:03:14;97680.09;;;10.35;100.00
84318;BME280;74497;51.654;14.238;2024-02-23T01:05:40;97677.22;;;10.36;100.00
84318;BME280;74497;51.654;14.238;2024-02-23T01:08:08;97690.94;;;10.40;100.00
84318;BME280;74497;51.654;14.238;2024-02-23T01:10:34;97692.97;;;10.44;100.00
84318;BME280;74497;51.654;14.238;2024-02-23T01:13:00;97692.81;;;10.39;100.00
84318;BME280;74497;51.654;14.238;2024-02-23T01:15:25;97683.75;;;10.40;100.00
84318;BME280;74497;51.654;14.238;2024-02-23T01:17:51;97694.38;;;10.47;100.00
84318;BME280;74497;51.654;14.238;2024-02-23T01:20:17;97688.69;;;10.43;100.00
84318;BME280;74497;51.654;14.238;2024-02-23T01:22:43;97695.66;;;10.44;100.00
84318;BME280;74497;51.654;14.238;2024-02-23T01:25:08;97690.66;;;10.48;100.00
84318;BME280;74497;51.654;14.238;2024-02-23T01:27:35;97699.28;;;10.50;100.00
84318;BME280;74497;51.654;14.238;2024-02-23T01:30:01;97699.59;;;10.60;100.00
84318;BME280;74497;51.654;14.238;2024-02-23T01:32:27;97705.97;;;10.59;100.00
84318;BME280;74497;51.654;14.238;2024-02-23T01:34:53;97722.59;;;10.61;100.00
84318;BME280;74497;51.654;14.238;2024-02-23T01:37:19;97721.72;;;10.67;100.00
84318;BME280;74497;51.654;14.238;2024-02-23T01:39:45;97734.41;;;10.72;100.00
84318;BME280;74497;51.654;14.238;2024-02-23T01:42:10;97740.50;;;10.79;100.00
84318;BME280;74497;51.654;14.238;2024-02-23T01:44:36;97740.50;;;10.79;100.00
84318;BME280;74497;51.654;14.238;2024-02-23T01:47:02;97751.72;;;10.88;100.00
84318;BME280;74497;51.654;14.238;2024-02-23T01:49:28;97748.13;;;11.00;100.00
84318;BME280;74497;51.654;14.238;2024-02-23T01:52:00;97760.66;;;11.00;100.00
84318;BME280;74497;51.654;14.238;2024-02-23T01:54:26;97768.19;;;11.09;100.00
84318;BME280;74497;51.654;14.238;2024-02-23T01:56:54;97762.31;;;11.19;100.00
84318;BME280;74497;51.654;14.238;2024-02-23T01:59:21;97766.78;;;11.25;100.00
84318;BME280;74497;51.654;14.238;2024-02-23T02:01:47;97790.56;;;11.33;100.00
84318;BME280;74497;51.654;14.238;2024-02-23T02:04:13;97798.69;;;11.45;100.00
84318;BME280;74497;51.654;14.238;2024-02-23T02:06:39;97817.75;;;11.49;100.00
84318;BME280;74497;51.654;14.238;2024-02-23T02:09:05;97829.56;;;11.59;100.00
84318;BME280;74497;51.654;14.238;2024-02-23T02:11:31;97839.06;;;11.55;100.00
84318;BME280;74497;51.654;14.238;2024-02-23T02:13:56;97840.84;;;11.61;100.00
84318;BME280;74497;51.654;14.238;2024-02-23T02:16:22;97851.47;;;11.68;100.00
84318;BME280;74497;51.654;14.238;2024-02-23T02:18:48;97840.78;;;11.68;100.00
84318;BME280;74497;51.654;14.238;2024-02-23T02:21:14;97838.09;;;11.68;100.00
84318;BME280;74497;51.654;14.238;2024-02-23T02:23:39;97836.25;;;11.69;100.00
84318;BME280;74497;51.654;14.238;2024-02-23T02:26:05;97834.78;;;11.73;100.00
84318;BME280;74497;51.654;14.238;2024-02-23T02:28:31;97849.31;;;11.77;100.00
84318;BME280;74497;51.654;14.238;2024-02-23T02:30:57;97856.75;;;11.75;100.00
84318;BME280;74497;51.654;14.238;2024-02-23T02:33:22;97860.00;;;11.77;100.00
84318;BME280;74497;51.654;14.238;2024-02-23T02:35:48;97841.53;;;11.75;100.00
84318;BME280;74497;51.654;14.238;2024-02-23T02:38:15;97863.53;;;11.77;100.00
84318;BME280;74497;51.654;14.238;2024-02-23T02:40:41;97868.03;;;11.77;100.00
84318;BME280;74497;51.654;14.238;2024-02-23T02:43:07;97872.38;;;11.78;100.00
84318;BME280;74497;51.654;14.238;2024-02-23T02:45:33;97866.22;;;11.77;100.00
84318;BME280;74497;51.654;14.238;2024-02-23T02:48:02;97888.84;;;11.75;100.00
84318;BME280;74497;51.654;14.238;2024-02-23T02:50:28;97886.47;;;11.67;100.00
84318;BME280;74497;51.654;14.238;2024-02-23T02:52:54;97898.19;;;11.66;100.00
84318;BME280;74497;51.654;14.238;2024-02-23T02:55:20;97900.06;;;11.65;100.00
84318;BME280;74497;51.654;14.238;2024-02-23T02:57:45;97905.59;;;11.63;100.00
84318;BME280;74497;51.654;14.238;2024-02-23T03:00:11;97888.44;;;11.53;100.00
84318;BME280;74497;51.654;14.238;2024-02-23T03:02:37;97908.63;;;11.49;100.00
84318;BME280;74497;51.654;14.238;2024-02-23T03:05:03;97904.91;;;11.50;100.00
84318;BME280;74497;51.654;14.238;2024-02-23T03:07:29;97921.41;;;11.47;100.00
84318;BME280;74497;51.654;14.238;2024-02-23T03:09:55;97920.63;;;11.40;100.00
84318;BME280;74497;51.654;14.238;2024-02-23T03:12:20;97927.00;;;11.38;100.00
84318;BME280;74497;51.654;14.238;2024-02-23T03:14:46;97919.59;;;11.41;100.00
84318;BME280;74497;51.654;14.238;2024-02-23T03:17:12;97921.28;;;11.35;100.00
84318;BME280;74497;51.654;14.238;2024-02-23T03:19:38;97931.56;;;11.31;100.00
84318;BME280;74497;51.654;14.238;2024-02-23T03:22:04;97937.72;;;11.32;100.00
84318;BME280;74497;51.654;14.238;2024-02-23T03:24:30;97945.59;;;11.27;100.00
84318;BME280;74497;51.654;14.238;2024-02-23T03:26:56;97946.03;;;11.24;100.00
84318;BME280;74497;51.654;14.238;2024-02-23T03:29:22;97947.69;;;11.18;100.00
84318;BME280;74497;51.654;14.238;2024-02-23T03:31:58;97968.88;;;11.20;100.00
84318;BME280;74497;51.654;14.238;2024-02-23T03:34:24;97966.84;;;11.15;100.00
84318;BME280;74497;51.654;14.238;2024-02-23T03:36:50;97975.91;;;11.14;100.00
84318;BME280;74497;51.654;14.238;2024-02-23T03:39:15;97982.66;;;11.17;100.00
84318;BME280;74497;51.654;14.238;2024-02-23T03:41:41;97985.97;;;11.12;100.00
84318;BME280;74497;51.654;14.238;2024-02-23T03:44:06;97986.63;;;11.07;100.00
84318;BME280;74497;51.654;14.238;2024-02-23T03:46:33;97999.16;;;11.00;100.00
84318;BME280;74497;51.654;14.238;2024-02-23T03:49:00;97995.50;;;11.01;100.00
84318;BME280;74497;51.654;14.238;2024-02-23T03:51:25;98010.31;;;10.97;100.00
84318;BME280;74497;51.654;14.238;2024-02-23T03:53:51;98017.75;;;10.89;100.00
84318;BME280;74497;51.654;14.238;2024-02-23T03:56:17;98030.84;;;10.97;100.00
84318;BME280;74497;51.654;14.238;2024-02-23T03:58:42;98027.78;;;10.93;100.00
84318;BME280;74497;51.654;14.238;2024-02-23T04:01:08;98044.63;;;10.87;100.00
84318;BME280;74497;51.654;14.238;2024-02-23T04:03:34;98054.75;;;10.78;100.00
84318;BME280;74497;51.654;14.238;2024-02-23T04:05:59;98063.19;;;10.75;100.00
84318;BME280;74497;51.654;14.238;2024-02-23T04:08:25;98066.88;;;10.74;100.00
84318;BME280;74497;51.654;14.238;2024-02-23T04:10:50;98086.38;;;10.81;100.00
84318;BME280;74497;51.654;14.238;2024-02-23T04:13:16;98083.91;;;10.73;100.00
84318;BME280;74497;51.654;14.238;2024-02-23T04:15:43;98101.56;;;10.74;100.00
84318;BME280;74497;51.654;14.238;2024-02-23T04:18:09;98115.94;;;10.80;100.00
84318;BME280;74497;51.654;14.238;2024-02-23T04:20:35;98120.91;;;10.76;100.00
84318;BME280;74497;51.654;14.238;2024-02-23T04:23:01;98131.75;;;10.75;100.00
84318;BME280;74497;51.654;14.238;2024-02-23T04:25:26;98139.59;;;10.76;100.00
84318;BME280;74497;51.654;14.238;2024-02-23T04:27:52;98152.50;;;10.79;100.00
84318;BME280;74497;51.654;14.238;2024-02-23T04:30:18;98147.38;;;10.78;100.00
84318;BME280;74497;51.654;14.238;2024-02-23T04:32:43;98167.50;;;10.74;100.00
84318;BME280;74497;51.654;14.238;2024-02-23T04:35:10;98181.28;;;10.71;100.00
84318;BME280;74497;51.654;14.238;2024-02-23T04:37:35;98184.16;;;10.69;100.00
84318;BME280;74497;51.654;14.238;2024-02-23T04:40:01;98183.75;;;10.66;100.00
84318;BME280;74497;51.654;14.238;2024-02-23T04:42:28;98190.94;;;10.65;100.00
84318;BME280;74497;51.654;14.238;2024-02-23T04:44:53;98187.84;;;10.55;100.00
84318;BME280;74497;51.654;14.238;2024-02-23T04:47:20;98197.69;;;10.61;100.00
84318;BME280;74497;51.654;14.238;2024-02-23T04:49:46;98212.09;;;10.53;100.00
84318;BME280;74497;51.654;14.238;2024-02-23T04:52:12;98217.63;;;10.52;100.00
84318;BME280;74497;51.654;14.238;2024-02-23T04:54:37;98237.34;;;10.58;100.00
84318;BME280;74497;51.654;14.238;2024-02-23T04:57:03;98249.06;;;10.50;100.00
84318;BME280;74497;51.654;14.238;2024-02-23T04:59:29;98246.16;;;10.25;100.00
84318;BME280;74497;51.654;14.238;2024-02-23T05:01:57;98248.94;;;10.17;100.00
84318;BME280;74497;51.654;14.238;2024-02-23T05:04:23;98255.91;;;10.05;100.00
84318;BME280;74497;51.654;14.238;2024-02-23T05:06:48;98250.53;;;9.91;100.00
84318;BME280;74497;51.654;14.238;2024-02-23T05:09:14;98262.19;;;9.77;100.00
84318;BME280;74497;51.654;14.238;2024-02-23T05:11:40;98278.63;;;9.81;100.00
84318;BME280;74497;51.654;14.238;2024-02-23T05:14:05;98266.06;;;9.74;100.00
84318;BME280;74497;51.654;14.238;2024-02-23T05:16:31;98287.38;;;9.68;100.00
84318;BME280;74497;51.654;14.238;2024-02-23T05:18:57;98286.34;;;9.69;100.00
84318;BME280;74497;51.654;14.238;2024-02-23T05:21:23;98293.50;;;9.62;100.00
84318;BME280;74497;51.654;14.238;2024-02-23T05:23:49;98302.28;;;9.56;100.00
84318;BME280;74497;51.654;14.238;2024-02-23T05:26:15;98307.34;;;9.44;100.00
84318;BME280;74497;51.654;14.238;2024-02-23T05:28:40;98314.72;;;9.42;100.00
84318;BME280;74497;51.654;14.238;2024-02-23T05:31:07;98327.78;;;9.37;100.00
84318;BME280;74497;51.654;14.238;2024-02-23T05:33:34;98327.53;;;9.32;100.00
84318;BME280;74497;51.654;14.238;2024-02-23T05:36:00;98336.81;;;9.36;100.00
84318;BME280;74497;51.654;14.238;2024-02-23T05:38:26;98345.00;;;9.41;100.00
84318;BME280;74497;51.654;14.238;2024-02-23T05:40:51;98345.16;;;9.33;100.00
84318;BME280;74497;51.654;14.238;2024-02-23T05:43:17;98342.91;;;9.30;100.00
84318;BME280;74497;51.654;14.238;2024-02-23T05:45:42;98358.50;;;9.33;100.00
84318;BME280;74497;51.654;14.238;2024-02-23T05:48:09;98356.81;;;9.25;100.00
84318;BME280;74497;51.654;14.238;2024-02-23T05:50:35;98357.56;;;9.19;100.00
84318;BME280;74497;51.654;14.238;2024-02-23T05:53:00;98349.28;;;9.07;100.00
84318;BME280;74497;51.654;14.238;2024-02-23T05:55:26;98363.63;;;9.06;100.00
84318;BME280;74497;51.654;14.238;2024-02-23T05:57:52;98359.97;;;9.14;100.00
84318;BME280;74497;51.654;14.238;2024-02-23T06:00:18;98350.09;;;9.08;100.00
84318;BME280;74497;51.654;14.238;2024-02-23T06:02:45;98358.91;;;9.08;100.00
84318;BME280;74497;51.654;14.238;2024-02-23T06:05:12;98365.81;;;9.03;100.00
84318;BME280;74497;51.654;14.238;2024-02-23T06:07:37;98357.78;;;8.96;100.00
84318;BME280;74497;51.654;14.238;2024-02-23T06:10:04;98375.03;;;9.00;100.00
84318;BME280;74497;51.654;14.238;2024-02-23T06:12:30;98384.25;;;8.98;100.00
84318;BME280;74497;51.654;14.238;2024-02-23T06:14:56;98402.13;;;9.04;100.00
84318;BME280;74497;51.654;14.238;2024-02-23T06:17:24;98400.56;;;8.94;100.00
84318;BME280;74497;51.654;14.238;2024-02-23T06:19:50;98388.91;;;8.96;100.00
84318;BME280;74497;51.654;14.238;2024-02-23T06:22:16;98397.50;;;8.91;100.00
84318;BME280;74497;51.654;14.238;2024-02-23T06:24:49;98400.78;;;8.93;100.00
84318;BME280;74497;51.654;14.238;2024-02-23T06:27:15;98419.22;;;8.94;100.00
84318;BME280;74497;51.654;14.238;2024-02-23T06:29:40;98436.22;;;8.93;100.00
84318;BME280;74497;51.654;14.238;2024-02-23T06:32:06;98428.78;;;8.89;100.00
84318;BME280;74497;51.654;14.238;2024-02-23T06:34:32;98445.22;;;8.92;100.00
84318;BME280;74497;51.654;14.238;2024-02-23T06:36:57;98448.25;;;8.89;100.00
84318;BME280;74497;51.654;14.238;2024-02-23T06:39:23;98459.72;;;8.90;100.00
84318;BME280;74497;51.654;14.238;2024-02-23T06:41:49;98464.34;;;8.81;100.00
84318;BME280;74497;51.654;14.238;2024-02-23T06:44:14;98467.06;;;8.88;100.00
84318;BME280;74497;51.654;14.238;2024-02-23T06:46:40;98479.00;;;8.92;100.00
84318;BME280;74497;51.654;14.238;2024-02-23T06:49:07;98486.34;;;8.90;100.00
84318;BME280;74497;51.654;14.238;2024-02-23T06:51:32;98480.84;;;8.91;100.00
84318;BME280;74497;51.654;14.238;2024-02-23T06:53:58;98489.19;;;8.88;100.00
84318;BME280;74497;51.654;14.238;2024-02-23T06:56:24;98496.81;;;8.91;100.00
84318;BME280;74497;51.654;14.238;2024-02-23T06:58:50;98498.59;;;8.84;100.00
84318;BME280;74497;51.654;14.238;2024-02-23T07:01:15;98487.09;;;8.84;100.00
84318;BME280;74497;51.654;14.238;2024-02-23T07:03:41;98488.84;;;8.77;100.00
84318;BME280;74497;51.654;14.238;2024-02-23T07:06:08;98497.22;;;8.74;100.00
84318;BME280;74497;51.654;14.238;2024-02-23T07:08:37;98496.88;;;8.62;100.00
84318;BME280;74497;51.654;14.238;2024-02-23T07:11:03;98496.78;;;8.55;100.00
84318;BME280;74497;51.654;14.238;2024-02-23T07:13:28;98498.72;;;8.61;100.00
84318;BME280;74497;51.654;14.238;2024-02-23T07:15:55;98490.47;;;8.56;100.00
84318;BME280;74497;51.654;14.238;2024-02-23T07:18:22;98495.41;;;8.59;100.00
84318;BME280;74497;51.654;14.238;2024-02-23T07:20:47;98494.22;;;8.62;100.00
84318;BME280;74497;51.654;14.238;2024-02-23T07:23:13;98493.38;;;8.61;100.00
84318;BME280;74497;51.654;14.238;2024-02-23T07:25:41;98483.38;;;8.63;100.00
84318;BME280;74497;51.654;14.238;2024-02-23T07:28:07;98488.63;;;8.72;100.00
84318;BME280;74497;51.654;14.238;2024-02-23T07:30:33;98495.19;;;8.76;100.00
84318;BME280;74497;51.654;14.238;2024-02-23T07:33:00;98486.94;;;8.71;100.00
84318;BME280;74497;51.654;14.238;2024-02-23T07:35:26;98476.56;;;8.76;100.00
84318;BME280;74497;51.654;14.238;2024-02-23T07:37:52;98482.16;;;8.81;100.00
84318;BME280;74497;51.654;14.238;2024-02-23T07:40:17;98499.56;;;8.98;100.00
84318;BME280;74497;51.654;14.238;2024-02-23T07:42:43;98506.84;;;9.11;100.00
84318;BME280;74497;51.654;14.238;2024-02-23T07:45:09;98519.09;;;9.27;100.00
84318;BME280;74497;51.654;14.238;2024-02-23T07:47:35;98526.59;;;9.38;100.00
84318;BME280;74497;51.654;14.238;2024-02-23T07:50:01;98534.13;;;9.56;100.00
84318;BME280;74497;51.654;14.238;2024-02-23T07:52:27;98537.13;;;9.67;100.00
84318;BME280;74497;51.654;14.238;2024-02-23T07:54:53;98531.91;;;9.59;100.00
84318;BME280;74497;51.654;14.238;2024-02-23T07:57:19;98547.91;;;9.38;100.00
84318;BME280;74497;51.654;14.238;2024-02-23T07:59:45;98568.63;;;9.21;100.00
84318;BME280;74497;51.654;14.238;2024-02-23T08:02:10;98576.91;;;9.11;100.00
84318;BME280;74497;51.654;14.238;2024-02-23T08:04:36;98572.97;;;9.07;100.00
84318;BME280;74497;51.654;14.238;2024-02-23T08:07:03;98572.97;;;9.07;100.00
84318;BME280;74497;51.654;14.238;2024-02-23T08:09:29;98580.91;;;8.86;100.00
84318;BME280;74497;51.654;14.238;2024-02-23T08:11:55;98586.50;;;8.76;100.00
84318;BME280;74497;51.654;14.238;2024-02-23T08:14:21;98601.75;;;8.68;100.00
84318;BME280;74497;51.654;14.238;2024-02-23T08:16:47;98619.03;;;8.72;100.00
84318;BME280;74497;51.654;14.238;2024-02-23T08:19:12;98620.00;;;8.56;100.00
84318;BME280;74497;51.654;14.238;2024-02-23T08:21:38;98623.41;;;8.50;100.00
84318;BME280;74497;51.654;14.238;2024-02-23T08:24:05;98620.94;;;8.48;100.00
84318;BME280;74497;51.654;14.238;2024-02-23T08:26:30;98640.19;;;8.50;100.00
84318;BME280;74497;51.654;14.238;2024-02-23T08:28:56;98646.06;;;8.46;100.00
84318;BME280;74497;51.654;14.238;2024-02-23T08:31:22;98648.38;;;8.26;100.00
84318;BME280;74497;51.654;14.238;2024-02-23T08:33:47;98659.69;;;8.28;100.00
84318;BME280;74497;51.654;14.238;2024-02-23T08:36:13;98657.47;;;8.31;100.00
84318;BME280;74497;51.654;14.238;2024-02-23T08:38:39;98645.59;;;8.42;100.00
84318;BME280;74497;51.654;14.238;2024-02-23T08:41:04;98644.13;;;8.39;100.00
84318;BME280;74497;51.654;14.238;2024-02-23T08:43:30;98638.03;;;8.31;100.00
84318;BME280;74497;51.654;14.238;2024-02-23T08:45:56;98650.28;;;8.17;100.00
84318;BME280;74497;51.654;14.238;2024-02-23T08:48:21;98652.41;;;8.22;100.00
84318;BME280;74497;51.654;14.238;2024-02-23T08:50:47;98663.28;;;8.35;100.00
84318;BME280;74497;51.654;14.238;2024-02-23T08:53:13;98665.25;;;8.33;100.00
84318;BME280;74497;51.654;14.238;2024-02-23T08:55:38;98675.97;;;8.25;100.00
84318;BME280;74497;51.654;14.238;2024-02-23T08:58:04;98671.28;;;8.27;100.00
84318;BME280;74497;51.654;14.238;2024-02-23T09:00:32;98669.38;;;8.21;100.00
84318;BME280;74497;51.654;14.238;2024-02-23T09:02:57;98671.19;;;8.20;100.00
84318;BME280;74497;51.654;14.238;2024-02-23T09:05:23;98656.91;;;8.21;100.00
84318;BME280;74497;51.654;14.238;2024-02-23T09:07:49;98663.59;;;8.17;100.00
84318;BME280;74497;51.654;14.238;2024-02-23T09:10:14;98664.78;;;8.15;100.00
84318;BME280;74497;51.654;14.238;2024-02-23T09:12:40;98672.16;;;8.04;100.00
84318;BME280;74497;51.654;14.238;2024-02-23T09:15:06;98671.34;;;8.04;100.00
84318;BME280;74497;51.654;14.238;2024-02-23T09:17:32;98666.47;;;8.07;100.00
84318;BME280;74497;51.654;14.238;2024-02-23T09:19:57;98669.91;;;7.93;100.00
84318;BME280;74497;51.654;14.238;2024-02-23T09:22:23;98676.63;;;7.89;100.00
84318;BME280;74497;51.654;14.238;2024-02-23T09:24:49;98679.03;;;7.99;100.00
84318;BME280;74497;51.654;14.238;2024-02-23T09:27:15;98676.88;;;7.94;100.00
84318;BME280;74497;51.654;14.238;2024-02-23T09:29:41;98679.84;;;7.99;100.00
84318;BME280;74497;51.654;14.238;2024-02-23T09:32:09;98684.38;;;8.13;100.00
84318;BME280;74497;51.654;14.238;2024-02-23T09:34:35;98689.56;;;8.30;100.00
84318;BME280;74497;51.654;14.238;2024-02-23T09:37:01;98703.13;;;8.43;100.00
84318;BME280;74497;51.654;14.238;2024-02-23T09:39:27;98696.75;;;8.67;100.00
84318;BME280;74497;51.654;14.238;2024-02-23T09:41:56;98706.75;;;8.94;100.00
84318;BME280;74497;51.654;14.238;2024-02-23T09:44:27;98705.94;;;9.24;100.00
84318;BME280;74497;51.654;14.238;2024-02-23T09:46:57;98709.97;;;9.49;100.00
84318;BME280;74497;51.654;14.238;2024-02-23T09:49:23;98708.53;;;9.68;100.00
84318;BME280;74497;51.654;14.238;2024-02-23T09:51:48;98708.81;;;9.58;100.00
84318;BME280;74497;51.654;14.238;2024-02-23T09:54:14;98721.13;;;9.74;100.00
84318;BME280;74497;51.654;14.238;2024-02-23T09:56:40;98715.13;;;9.72;100.00
84318;BME280;74497;51.654;14.238;2024-02-23T09:59:06;98720.03;;;9.68;100.00
84318;BME280;74497;51.654;14.238;2024-02-23T10:01:32;98721.81;;;9.83;100.00
84318;BME280;74497;51.654;14.238;2024-02-23T10:04:00;98727.16;;;9.83;100.00
84318;BME280;74497;51.654;14.238;2024-02-23T10:06:27;98738.97;;;9.73;100.00
84318;BME280;74497;51.654;14.238;2024-02-23T10:08:53;98734.91;;;9.63;100.00
84318;BME280;74497;51.654;14.238;2024-02-23T10:11:23;98730.59;;;9.62;100.00
84318;BME280;74497;51.654;14.238;2024-02-23T10:13:50;98727.00;;;9.69;100.00
84318;BME280;74497;51.654;14.238;2024-02-23T10:16:20;98728.72;;;9.77;100.00
84318;BME280;74497;51.654;14.238;2024-02-23T10:18:49;98722.09;;;10.09;100.00
84318;BME280;74497;51.654;14.238;2024-02-23T10:21:16;98714.28;;;10.29;100.00
84318;BME280;74497;51.654;14.238;2024-02-23T10:23:44;98712.16;;;10.39;100.00
84318;BME280;74497;51.654;14.238;2024-02-23T10:26:10;98707.72;;;10.53;100.00
84318;BME280;74497;51.654;14.238;2024-02-23T10:28:37;98717.03;;;10.57;92.57
84318;BME280;74497;51.654;14.238;2024-02-23T10:31:06;98712.97;;;10.40;90.46
84318;BME280;74497;51.654;14.238;2024-02-23T10:33:32;98722.16;;;10.16;94.83
84318;BME280;74497;51.654;14.238;2024-02-23T10:35:59;98729.06;;;10.25;94.72
84318;BME280;74497;51.654;14.238;2024-02-23T10:38:26;98730.88;;;10.46;96.03
84318;BME280;74497;51.654;14.238;2024-02-23T10:40:55;98735.13;;;10.40;89.83
84318;BME280;74497;51.654;14.238;2024-02-23T10:43:30;98732.00;;;10.58;92.12
84318;BME280;74497;51.654;14.238;2024-02-23T10:45:57;98730.84;;;10.67;90.96
84318;BME280;74497;51.654;14.238;2024-02-23T10:48:25;98728.97;;;10.89;91.86
84318;BME280;74497;51.654;14.238;2024-02-23T10:50:52;98724.28;;;10.98;90.89
84318;BME280;74497;51.654;14.238;2024-02-23T10:53:19;98728.81;;;10.69;89.18
84318;BME280;74497;51.654;14.238;2024-02-23T10:55:45;98721.69;;;11.11;94.68
84318;BME280;74497;51.654;14.238;2024-02-23T10:58:11;98722.63;;;11.31;89.51
84318;BME280;74497;51.654;14.238;2024-02-23T11:00:38;98729.28;;;11.49;93.01
84318;BME280;74497;51.654;14.238;2024-02-23T11:03:05;98732.94;;;11.34;87.15
84318;BME280;74497;51.654;14.238;2024-02-23T11:05:33;98728.81;;;10.97;89.22
84318;BME280;74497;51.654;14.238;2024-02-23T11:07:59;98730.81;;;10.89;91.34
84318;BME280;74497;51.654;14.238;2024-02-23T11:10:25;98739.41;;;10.56;95.36
84318;BME280;74497;51.654;14.238;2024-02-23T11:13:00;98729.34;;;10.37;94.62
84318;BME280;74497;51.654;14.238;2024-02-23T11:15:30;98732.84;;;10.59;97.56
84318;BME280;74497;51.654;14.238;2024-02-23T11:17:57;98739.41;;;10.56;97.92
84318;BME280;74497;51.654;14.238;2024-02-23T11:20:23;98738.75;;;10.54;98.79
84318;BME280;74497;51.654;14.238;2024-02-23T11:22:52;98748.94;;;10.44;97.71
84318;BME280;74497;51.654;14.238;2024-02-23T11:25:19;98740.34;;;10.27;97.45
84318;BME280;74497;51.654;14.238;2024-02-23T11:27:49;98762.00;;;9.81;100.00
84318;BME280;74497;51.654;14.238;2024-02-23T11:30:16;98763.84;;;9.81;100.00
84318;BME280;74497;51.654;14.238;2024-02-23T11:32:44;98772.31;;;9.69;100.00
84318;BME280;74497;51.654;14.238;2024-02-23T11:35:14;98767.69;;;9.78;100.00
84318;BME280;74497;51.654;14.238;2024-02-23T11:37:51;98767.41;;;9.73;100.00
84318;BME280;74497;51.654;14.238;2024-02-23T11:40:22;98773.88;;;9.64;100.00
84318;BME280;74497;51.654;14.238;2024-02-23T11:42:48;98767.34;;;9.81;100.00
84318;BME280;74497;51.654;14.238;2024-02-23T11:45:13;98766.66;;;9.94;100.00
84318;BME280;74497;51.654;14.238;2024-02-23T11:47:39;98768.56;;;10.00;100.00
84318;BME280;74497;51.654;14.238;2024-02-23T11:50:09;98770.66;;;10.05;100.00
84318;BME280;74497;51.654;14.238;2024-02-23T11:52:38;98773.78;;;10.08;95.82
84318;BME280;74497;51.654;14.238;2024-02-23T11:55:05;98774.66;;;9.94;95.76
84318;BME280;74497;51.654;14.238;2024-02-23T11:57:34;98769.13;;;9.95;97.84
84318;BME280;74497;51.654;14.238;2024-02-23T12:00:04;98782.34;;;10.03;95.51
84318;BME280;74497;51.654;14.238;2024-02-23T12:02:33;98762.53;;;10.27;99.96
84318;BME280;74497;51.654;14.238;2024-02-23T12:04:58;98751.31;;;10.17;94.35
84318;BME280;74497;51.654;14.238;2024-02-23T12:07:24;98755.56;;;10.12;96.85
84318;BME280;74497;51.654;14.238;2024-02-23T12:09:52;98759.38;;;10.02;91.20
84318;BME280;74497;51.654;14.238;2024-02-23T12:12:18;98763.84;;;9.81;92.26
84318;BME280;74497;51.654;14.238;2024-02-23T12:14:44;98758.19;;;9.90;93.60
84318;BME280;74497;51.654;14.238;2024-02-23T12:17:10;98778.84;;;10.03;95.53
84318;BME280;74497;51.654;14.238;2024-02-23T12:19:39;98768.66;;;10.07;96.43
84318;BME280;74497;51.654;14.238;2024-02-23T12:22:05;98781.72;;;10.01;98.29
84318;BME280;74497;51.654;14.238;2024-02-23T12:24:31;98780.25;;;9.99;95.52
84318;BME280;74497;51.654;14.238;2024-02-23T12:26:57;98790.66;;;9.94;96.58
84318;BME280;74497;51.654;14.238;2024-02-23T12:29:23;98783.75;;;9.99;97.45
84318;BME280;74497;51.654;14.238;2024-02-23T12:31:49;98790.63;;;10.09;97.15
84318;BME280;74497;51.654;14.238;2024-02-23T12:34:15;98790.56;;;10.38;99.08
84318;BME280;74497;51.654;14.238;2024-02-23T12:36:42;98779.34;;;10.71;96.68
84318;BME280;74497;51.654;14.238;2024-02-23T12:39:08;98786.78;;;10.75;92.71
84318;BME280;74497;51.654;14.238;2024-02-23T12:41:34;98788.91;;;10.87;90.13